createdAt,value
2023-04-26T00:00:31.539Z,9.30
2023-04-26T00:03:00.677Z,9.30
2023-04-26T00:05:29.423Z,9.30
2023-04-26T00:07:56.537Z,9.20
2023-04-26T00:10:23.280Z,9.20
2023-04-26T00:12:49.955Z,9.20
2023-04-26T00:15:16.618Z,9.10
2023-04-26T00:17:43.909Z,9.10
2023-04-26T00:20:13.369Z,9.10
2023-04-26T00:22:40.670Z,9.10
2023-04-26T00:25:07.796Z,9.10
2023-04-26T00:27:34.457Z,9.00
2023-04-26T00:30:01.163Z,9.00
2023-04-26T00:32:28.207Z,9.00
2023-04-26T00:34:55.023Z,9.00
2023-04-26T00:37:21.829Z,8.90
2023-04-26T00:39:48.645Z,8.90
2023-04-26T00:42:15.693Z,8.90
2023-04-26T00:44:42.842Z,8.90
2023-04-26T00:47:09.780Z,8.90
2023-04-26T00:49:36.835Z,8.80
2023-04-26T00:52:03.906Z,8.80
2023-04-26T00:54:30.766Z,8.80
2023-04-26T00:56:57.915Z,8.80
2023-04-26T00:59:24.587Z,8.80
2023-04-26T01:01:51.841Z,8.80
2023-04-26T01:04:19.131Z,8.70
2023-04-26T01:06:46.311Z,8.70
2023-04-26T01:09:15.261Z,8.70
2023-04-26T01:11:43.621Z,8.70
2023-04-26T01:14:11.009Z,8.70
2023-04-26T01:16:39.305Z,8.70
2023-04-26T01:19:13.153Z,8.60
2023-04-26T01:21:40.768Z,8.60
2023-04-26T01:24:09.599Z,8.60
2023-04-26T01:26:46.497Z,8.60
2023-04-26T01:29:21.569Z,8.60
2023-04-26T01:31:48.909Z,8.50
2023-04-26T01:34:16.091Z,8.50
2023-04-26T01:36:45.932Z,8.50
2023-04-26T01:39:12.704Z,8.50
2023-04-26T01:41:39.382Z,8.50
2023-04-26T01:44:06.572Z,8.50
2023-04-26T01:46:33.427Z,8.50
2023-04-26T01:49:00.181Z,8.40
2023-04-26T01:51:27.076Z,8.40
2023-04-26T01:53:53.830Z,8.40
2023-04-26T01:56:20.994Z,8.40
2023-04-26T01:58:47.704Z,8.40
2023-04-26T02:01:14.450Z,8.40
2023-04-26T02:03:41.328Z,8.30
2023-04-26T02:06:08.191Z,8.30
2023-04-26T02:08:34.808Z,8.30
2023-04-26T02:11:01.421Z,8.30
2023-04-26T02:13:28.081Z,8.30
2023-04-26T02:15:54.830Z,8.30
2023-04-26T02:18:21.854Z,8.30
2023-04-26T02:20:50.348Z,8.20
2023-04-26T02:23:17.322Z,8.20
2023-04-26T02:25:47.428Z,8.20
2023-04-26T02:28:14.452Z,8.20
2023-04-26T02:30:41.152Z,8.20
2023-04-26T02:33:08.916Z,8.20
2023-04-26T02:35:37.313Z,8.10
2023-04-26T02:38:04.929Z,8.10
2023-04-26T02:40:31.788Z,8.10
2023-04-26T02:42:58.555Z,8.10
2023-04-26T02:45:25.420Z,8.10
2023-04-26T02:47:52.997Z,8.10
2023-04-26T02:50:20.263Z,8.00
2023-04-26T02:52:48.125Z,8.00
2023-04-26T02:55:14.864Z,8.00
2023-04-26T02:57:42.662Z,8.00
2023-04-26T03:00:10.213Z,8.00
2023-04-26T03:02:37.389Z,7.90
2023-04-26T03:05:04.472Z,8.00
2023-04-26T03:07:31.921Z,7.90
2023-04-26T03:09:58.983Z,7.90
2023-04-26T03:12:26.746Z,7.90
2023-04-26T03:14:53.622Z,7.90
2023-04-26T03:17:20.365Z,7.80
2023-04-26T03:19:47.469Z,7.80
2023-04-26T03:22:16.134Z,7.80
2023-04-26T03:24:43.700Z,7.80
2023-04-26T03:27:11.511Z,7.80
2023-04-26T03:29:39.281Z,7.80
2023-04-26T03:32:07.243Z,7.70
2023-04-26T03:34:34.220Z,7.80
2023-04-26T03:37:02.300Z,7.70
2023-04-26T03:39:30.074Z,7.70
2023-04-26T03:41:56.684Z,7.70
2023-04-26T03:44:23.485Z,7.70
2023-04-26T03:46:50.507Z,7.70
2023-04-26T03:49:17.203Z,7.70
2023-04-26T03:51:44.664Z,7.70
2023-04-26T03:54:11.618Z,7.70
2023-04-26T03:56:40.100Z,7.60
2023-04-26T03:59:09.751Z,7.60
2023-04-26T04:01:37.996Z,7.60
2023-04-26T04:04:05.245Z,7.60
2023-04-26T04:06:32.924Z,7.60
2023-04-26T04:09:01.317Z,7.60
2023-04-26T04:11:27.936Z,7.60
2023-04-26T04:13:54.671Z,7.60
2023-04-26T04:16:21.763Z,7.60
2023-04-26T04:18:48.658Z,7.60
2023-04-26T04:21:15.302Z,7.60
2023-04-26T04:23:43.383Z,7.50
2023-04-26T04:26:12.497Z,7.60
2023-04-26T04:28:41.472Z,7.50
2023-04-26T04:31:11.216Z,7.60
2023-04-26T04:33:37.952Z,7.60
2023-04-26T04:36:06.668Z,7.60
2023-04-26T04:38:33.474Z,7.60
2023-04-26T04:41:00.258Z,7.60
2023-04-26T04:43:27.898Z,7.60
2023-04-26T04:45:55.435Z,7.70
2023-04-26T04:48:22.294Z,7.70
2023-04-26T04:50:49.835Z,7.70
2023-04-26T04:53:17.254Z,7.70
2023-04-26T04:55:43.961Z,7.80
2023-04-26T04:58:13.905Z,7.80
2023-04-26T05:00:40.590Z,7.80
2023-04-26T05:03:19.475Z,7.90
2023-04-26T05:05:46.312Z,7.90
2023-04-26T05:08:13.110Z,7.90
2023-04-26T05:10:39.773Z,8.00
2023-04-26T05:13:07.396Z,8.00
2023-04-26T05:15:34.410Z,8.10
2023-04-26T05:18:01.388Z,8.10
2023-04-26T05:20:29.406Z,8.20
2023-04-26T05:22:56.205Z,8.20
2023-04-26T05:25:23.023Z,8.20
2023-04-26T05:27:55.335Z,8.30
2023-04-26T05:30:36.159Z,8.30
2023-04-26T05:33:23.338Z,8.40
2023-04-26T05:36:07.111Z,8.40
2023-04-26T05:38:33.843Z,8.40
2023-04-26T05:41:00.476Z,8.50
2023-04-26T05:43:28.246Z,8.50
2023-04-26T05:45:57.057Z,8.50
2023-04-26T05:48:25.299Z,8.50
2023-04-26T05:50:52.496Z,8.50
2023-04-26T05:53:19.906Z,8.50
2023-04-26T05:55:47.311Z,8.60
2023-04-26T05:58:15.016Z,8.60
2023-04-26T06:00:42.683Z,8.60
2023-04-26T06:03:09.769Z,8.60
2023-04-26T06:05:38.624Z,8.70
2023-04-26T06:08:05.858Z,8.70
2023-04-26T06:10:32.730Z,8.80
2023-04-26T06:12:59.402Z,8.80
2023-04-26T06:15:28.499Z,8.90
2023-04-26T06:17:55.647Z,8.90
2023-04-26T06:20:22.651Z,8.90
2023-04-26T06:22:49.417Z,9.00
2023-04-26T06:25:16.414Z,9.10
2023-04-26T06:27:43.192Z,9.20
2023-04-26T06:30:10.449Z,9.30
2023-04-26T06:32:42.208Z,9.40
2023-04-26T06:35:09.342Z,9.50
2023-04-26T06:37:36.897Z,9.70
2023-04-26T06:40:04.346Z,9.90
2023-04-26T06:42:31.434Z,10.20
2023-04-26T06:45:17.128Z,10.50
2023-04-26T06:47:47.970Z,10.80
2023-04-26T06:50:14.750Z,11.20
2023-04-26T06:52:41.369Z,11.60
2023-04-26T06:55:08.794Z,11.90
2023-04-26T06:57:35.447Z,12.20
2023-04-26T07:00:03.856Z,12.50
2023-04-26T07:02:31.690Z,12.70
2023-04-26T07:04:58.689Z,12.80
2023-04-26T07:07:25.625Z,12.90
2023-04-26T07:09:52.970Z,13.00
2023-04-26T07:12:19.596Z,13.10
2023-04-26T07:14:46.387Z,13.20
2023-04-26T07:17:13.098Z,13.20
2023-04-26T07:19:39.803Z,13.20
2023-04-26T07:22:06.659Z,13.20
2023-04-26T07:24:33.275Z,13.20
2023-04-26T07:27:00.009Z,13.10
2023-04-26T07:29:26.818Z,13.10
2023-04-26T07:31:53.462Z,13.00
2023-04-26T07:34:20.088Z,13.00
2023-04-26T07:36:46.849Z,12.90
2023-04-26T07:39:15.428Z,12.90
2023-04-26T07:41:43.820Z,12.90
2023-04-26T07:44:11.455Z,12.90
2023-04-26T07:46:38.189Z,12.80
2023-04-26T07:49:04.891Z,12.80
2023-04-26T07:51:31.873Z,12.80
2023-04-26T07:53:58.561Z,12.80
2023-04-26T07:56:25.294Z,12.80
2023-04-26T07:58:51.996Z,12.80
2023-04-26T08:01:18.725Z,12.80
2023-04-26T08:03:45.859Z,12.80
2023-04-26T08:06:12.896Z,12.80
2023-04-26T08:08:45.186Z,12.90
2023-04-26T08:11:11.995Z,12.90
2023-04-26T08:13:38.706Z,12.90
2023-04-26T08:16:06.321Z,13.00
2023-04-26T08:18:33.581Z,13.00
2023-04-26T08:21:00.291Z,13.10
2023-04-26T08:23:28.212Z,13.10
2023-04-26T08:25:54.869Z,13.20
2023-04-26T08:28:21.655Z,13.30
2023-04-26T08:30:48.419Z,13.30
2023-04-26T08:33:15.087Z,13.40
2023-04-26T08:35:41.757Z,13.40
2023-04-26T08:38:08.443Z,13.40
2023-04-26T08:40:36.419Z,13.50
2023-04-26T08:43:03.100Z,13.50
2023-04-26T08:45:31.223Z,13.60
2023-04-26T08:48:05.588Z,13.60
2023-04-26T08:50:34.329Z,13.80
2023-04-26T08:53:01.182Z,13.80
2023-04-26T08:55:28.310Z,13.90
2023-04-26T08:57:55.938Z,14.00
2023-04-26T09:00:23.482Z,14.10
2023-04-26T09:02:52.583Z,14.10
2023-04-26T09:05:24.543Z,14.20
2023-04-26T09:08:16.695Z,14.40
2023-04-26T09:10:43.701Z,14.60
2023-04-26T09:13:11.391Z,14.90
2023-04-26T09:15:38.443Z,15.20
2023-04-26T09:18:21.884Z,15.50
2023-04-26T09:21:08.776Z,15.70
2023-04-26T09:23:35.632Z,15.90
2023-04-26T09:26:22.251Z,16.00
2023-04-26T09:28:49.530Z,16.10
2023-04-26T09:31:38.226Z,16.20
2023-04-26T09:34:05.000Z,16.20
2023-04-26T09:36:32.178Z,16.10
2023-04-26T09:38:59.102Z,16.10
2023-04-26T09:41:43.342Z,16.10
2023-04-26T09:44:22.663Z,16.00
2023-04-26T09:47:04.010Z,15.90
2023-04-26T09:49:52.438Z,15.90
2023-04-26T09:52:20.115Z,15.90
2023-04-26T09:54:52.111Z,15.70
2023-04-26T09:57:20.287Z,15.60
2023-04-26T09:59:49.091Z,15.50
2023-04-26T10:02:17.849Z,15.50
2023-04-26T10:04:48.992Z,15.50
2023-04-26T10:07:18.274Z,15.50
2023-04-26T10:09:46.620Z,15.60
2023-04-26T10:12:15.253Z,15.70
2023-04-26T10:14:43.076Z,15.90
2023-04-26T10:17:11.685Z,16.00
2023-04-26T10:19:41.198Z,16.00
2023-04-26T10:22:17.577Z,16.10
2023-04-26T10:24:45.678Z,16.10
2023-04-26T10:27:12.653Z,16.10
2023-04-26T10:29:54.566Z,16.10
2023-04-26T10:32:24.371Z,16.00
2023-04-26T10:35:14.350Z,16.00
2023-04-26T10:38:09.073Z,15.90
2023-04-26T10:40:41.080Z,15.80
2023-04-26T10:43:14.721Z,15.80
2023-04-26T10:45:43.506Z,15.70
2023-04-26T10:48:19.696Z,15.70
2023-04-26T10:51:01.714Z,15.70
2023-04-26T10:53:33.340Z,15.70
2023-04-26T10:56:00.047Z,15.70
2023-04-26T10:58:34.056Z,15.70
2023-04-26T11:01:04.550Z,15.80
2023-04-26T11:03:31.788Z,15.80
2023-04-26T11:05:59.115Z,15.80
2023-04-26T11:08:27.962Z,15.80
2023-04-26T11:11:10.619Z,15.80
2023-04-26T11:13:42.023Z,15.80
2023-04-26T11:16:10.622Z,15.70
2023-04-26T11:18:43.270Z,15.70
2023-04-26T11:21:12.079Z,15.70
2023-04-26T11:23:40.324Z,15.70
2023-04-26T11:26:08.792Z,15.70
2023-04-26T11:28:37.079Z,15.60
2023-04-26T11:31:05.512Z,15.60
2023-04-26T11:33:34.134Z,15.60
2023-04-26T11:36:00.882Z,15.50
2023-04-26T11:38:29.061Z,15.60
2023-04-26T11:41:03.377Z,15.50
2023-04-26T11:43:36.687Z,15.50
2023-04-26T11:46:08.490Z,15.40
2023-04-26T11:48:37.264Z,15.40
2023-04-26T11:51:05.441Z,15.30
2023-04-26T11:53:40.225Z,15.30
2023-04-26T11:56:27.246Z,15.30
2023-04-26T11:58:54.155Z,15.20
2023-04-26T12:01:28.307Z,15.20
2023-04-26T12:03:57.389Z,15.20
2023-04-26T12:06:43.850Z,15.20
2023-04-26T12:09:12.231Z,15.10
2023-04-26T12:11:39.746Z,15.10
2023-04-26T12:14:07.916Z,15.10
2023-04-26T12:16:38.067Z,15.00
2023-04-26T12:19:07.152Z,15.00
2023-04-26T12:21:44.445Z,15.00
2023-04-26T12:24:25.422Z,14.90
2023-04-26T12:26:52.413Z,14.90
2023-04-26T12:29:19.214Z,14.90
2023-04-26T12:31:46.859Z,14.80
2023-04-26T12:34:13.658Z,14.90
2023-04-26T12:36:44.302Z,14.90
2023-04-26T12:39:13.301Z,14.90
2023-04-26T12:41:41.218Z,14.90
2023-04-26T12:44:08.890Z,15.00
2023-04-26T12:46:36.627Z,15.00
2023-04-26T12:49:04.053Z,15.10
2023-04-26T12:51:31.887Z,15.10
2023-04-26T12:53:58.606Z,15.20
2023-04-26T12:56:25.643Z,15.20
2023-04-26T12:58:52.464Z,15.20
2023-04-26T13:01:19.179Z,15.30
2023-04-26T13:03:46.286Z,15.30
2023-04-26T13:06:13.212Z,15.40
2023-04-26T13:08:40.056Z,15.50
2023-04-26T13:11:07.019Z,15.50
2023-04-26T13:13:42.935Z,15.60
2023-04-26T13:16:12.467Z,15.60
2023-04-26T13:18:39.641Z,15.60
2023-04-26T13:21:06.321Z,15.70
2023-04-26T13:23:33.020Z,15.70
2023-04-26T13:25:59.696Z,15.70
2023-04-26T13:28:26.341Z,15.80
2023-04-26T13:30:53.170Z,15.80
2023-04-26T13:33:20.987Z,15.80
2023-04-26T13:35:47.689Z,15.80
2023-04-26T13:38:14.501Z,15.90
2023-04-26T13:40:41.454Z,15.90
2023-04-26T13:43:08.132Z,15.90
2023-04-26T13:45:36.559Z,15.90
2023-04-26T13:48:03.429Z,15.90
2023-04-26T13:50:30.197Z,15.90
2023-04-26T13:52:56.873Z,15.90
2023-04-26T13:55:23.724Z,15.90
2023-04-26T13:57:50.443Z,15.80
2023-04-26T14:00:17.603Z,15.80
2023-04-26T14:02:46.248Z,15.80
2023-04-26T14:05:13.271Z,15.80
2023-04-26T14:07:41.482Z,15.80
2023-04-26T14:10:08.971Z,15.80
2023-04-26T14:12:35.686Z,15.80
2023-04-26T14:15:04.260Z,15.70
2023-04-26T14:17:32.418Z,15.70
2023-04-26T14:19:59.128Z,15.70
2023-04-26T14:22:26.983Z,15.70
2023-04-26T14:24:53.690Z,15.70
2023-04-26T14:27:20.766Z,15.60
2023-04-26T14:29:47.540Z,15.60
2023-04-26T14:32:14.301Z,15.60
2023-04-26T14:34:41.827Z,15.60
2023-04-26T14:37:08.926Z,15.60
2023-04-26T14:39:35.693Z,15.60
2023-04-26T14:42:03.347Z,15.60
2023-04-26T14:44:30.304Z,15.60
2023-04-26T14:46:57.024Z,15.50
2023-04-26T14:49:23.777Z,15.50
2023-04-26T14:51:53.009Z,15.50
2023-04-26T14:54:20.941Z,15.50
2023-04-26T14:56:47.779Z,15.50
2023-04-26T14:59:14.464Z,15.50
2023-04-26T15:01:41.438Z,15.40
2023-04-26T15:04:08.323Z,15.40
2023-04-26T15:06:35.303Z,15.40
2023-04-26T15:09:02.001Z,15.40
2023-04-26T15:11:28.704Z,15.40
2023-04-26T15:13:55.363Z,15.40
2023-04-26T15:16:22.754Z,15.40
2023-04-26T15:18:49.471Z,15.40
2023-04-26T15:21:19.711Z,15.40
2023-04-26T15:23:46.624Z,15.40
2023-04-26T15:26:13.705Z,15.40
2023-04-26T15:28:40.737Z,15.30
2023-04-26T15:31:11.212Z,15.30
2023-04-26T15:33:37.964Z,15.30
2023-04-26T15:36:05.378Z,15.20
2023-04-26T15:38:34.638Z,15.20
2023-04-26T15:41:01.309Z,15.20
2023-04-26T15:43:27.960Z,15.10
2023-04-26T15:45:54.939Z,15.10
2023-04-26T15:48:21.842Z,15.10
2023-04-26T15:50:48.569Z,15.10
2023-04-26T15:53:15.961Z,15.00
2023-04-26T15:55:42.755Z,15.00
2023-04-26T15:58:09.414Z,15.00
2023-04-26T16:00:36.571Z,14.90
2023-04-26T16:03:03.363Z,14.90
2023-04-26T16:05:31.644Z,14.90
2023-04-26T16:07:59.534Z,14.80
2023-04-26T16:10:26.936Z,14.80
2023-04-26T16:12:56.446Z,14.80
2023-04-26T16:15:23.247Z,14.80
2023-04-26T16:17:50.008Z,14.80
2023-04-26T16:20:16.708Z,14.70
2023-04-26T16:22:44.719Z,14.80
2023-04-26T16:25:12.049Z,14.70
2023-04-26T16:27:38.696Z,14.70
2023-04-26T16:30:05.860Z,14.70
2023-04-26T16:32:33.017Z,14.70
2023-04-26T16:34:59.684Z,14.70
2023-04-26T16:37:26.468Z,14.70
2023-04-26T16:39:56.586Z,14.70
2023-04-26T16:42:23.302Z,14.70
2023-04-26T16:44:49.980Z,14.60
2023-04-26T16:47:16.577Z,14.60
2023-04-26T16:49:43.253Z,14.60
2023-04-26T16:52:12.978Z,14.50
2023-04-26T16:54:39.862Z,14.50
2023-04-26T16:57:06.502Z,14.50
2023-04-26T16:59:33.114Z,14.50
2023-04-26T17:01:59.887Z,14.50
2023-04-26T17:04:27.226Z,14.50
2023-04-26T17:06:54.738Z,14.40
2023-04-26T17:09:21.499Z,14.40
2023-04-26T17:11:49.791Z,14.40
2023-04-26T17:14:16.470Z,14.40
2023-04-26T17:16:43.223Z,14.30
2023-04-26T17:19:10.074Z,14.30
2023-04-26T17:21:36.789Z,14.30
2023-04-26T17:24:03.667Z,14.20
2023-04-26T17:26:30.822Z,14.20
2023-04-26T17:28:57.494Z,14.20
2023-04-26T17:31:24.238Z,14.10
2023-04-26T17:33:50.935Z,14.10
2023-04-26T17:36:17.831Z,14.10
2023-04-26T17:38:44.634Z,14.10
2023-04-26T17:41:12.984Z,14.00
2023-04-26T17:43:39.675Z,14.00
2023-04-26T17:46:06.370Z,14.00
2023-04-26T17:48:33.065Z,13.90
2023-04-26T17:50:59.691Z,13.90
2023-04-26T17:53:26.383Z,13.80
2023-04-26T17:55:53.083Z,13.80
2023-04-26T17:58:19.856Z,13.80
2023-04-26T18:00:46.821Z,13.80
2023-04-26T18:03:13.632Z,13.80
2023-04-26T18:05:40.694Z,13.70
2023-04-26T18:08:07.328Z,13.70
2023-04-26T18:10:34.033Z,13.70
2023-04-26T18:13:00.622Z,13.60
2023-04-26T18:15:27.455Z,13.60
2023-04-26T18:17:54.185Z,13.60
2023-04-26T18:20:21.298Z,13.50
2023-04-26T18:22:48.000Z,13.50
2023-04-26T18:25:15.436Z,13.50
2023-04-26T18:27:42.165Z,13.40
2023-04-26T18:30:09.434Z,13.40
2023-04-26T18:32:36.138Z,13.40
2023-04-26T18:35:06.085Z,13.30
2023-04-26T18:37:32.972Z,13.30
2023-04-26T18:39:59.695Z,13.20
2023-04-26T18:42:26.424Z,13.20
2023-04-26T18:44:53.409Z,13.20
2023-04-26T18:47:20.480Z,13.20
2023-04-26T18:49:47.223Z,13.10
2023-04-26T18:52:13.892Z,13.10
2023-04-26T18:54:40.906Z,13.10
2023-04-26T18:57:07.585Z,13.00
2023-04-26T18:59:34.231Z,13.00
2023-04-26T19:02:01.583Z,13.00
2023-04-26T19:04:28.531Z,13.00
2023-04-26T19:06:55.381Z,12.90
2023-04-26T19:09:22.027Z,12.90
2023-04-26T19:11:49.024Z,12.90
2023-04-26T19:14:15.860Z,12.80
2023-04-26T19:16:42.578Z,12.80
2023-04-26T19:19:11.120Z,12.80
2023-04-26T19:21:38.410Z,12.80
2023-04-26T19:24:05.468Z,12.80
2023-04-26T19:26:32.394Z,12.80
2023-04-26T19:28:59.080Z,12.70
2023-04-26T19:31:25.755Z,12.70
2023-04-26T19:33:52.476Z,12.70
2023-04-26T19:36:20.061Z,12.70
2023-04-26T19:38:48.432Z,12.60
2023-04-26T19:41:15.245Z,12.60
2023-04-26T19:43:41.909Z,12.60
2023-04-26T19:46:13.069Z,12.60
2023-04-26T19:48:40.761Z,12.60
2023-04-26T19:51:07.389Z,12.60
2023-04-26T19:53:35.152Z,12.60
2023-04-26T19:56:01.813Z,12.50
2023-04-26T19:58:28.443Z,12.50
2023-04-26T20:00:55.085Z,12.50
2023-04-26T20:03:21.859Z,12.50
2023-04-26T20:05:49.416Z,12.50
2023-04-26T20:08:16.682Z,12.40
2023-04-26T20:10:43.307Z,12.40
2023-04-26T20:13:10.072Z,12.40
2023-04-26T20:15:36.768Z,12.40
2023-04-26T20:18:03.694Z,12.40
2023-04-26T20:20:30.518Z,12.30
2023-04-26T20:22:57.170Z,12.30
2023-04-26T20:25:24.042Z,12.30
2023-04-26T20:27:50.972Z,12.30
2023-04-26T20:30:19.947Z,12.30
2023-04-26T20:32:46.664Z,12.30
2023-04-26T20:35:13.636Z,12.30
2023-04-26T20:37:40.540Z,12.30
2023-04-26T20:40:07.885Z,12.30
2023-04-26T20:42:34.567Z,12.30
2023-04-26T20:45:02.419Z,12.20
2023-04-26T20:47:29.499Z,12.20
2023-04-26T20:49:56.566Z,12.20
2023-04-26T20:52:23.272Z,12.20
2023-04-26T20:54:49.892Z,12.20
2023-04-26T20:57:16.852Z,12.20
2023-04-26T20:59:43.554Z,12.10
2023-04-26T21:02:10.430Z,12.10
2023-04-26T21:04:38.568Z,12.10
2023-04-26T21:07:05.617Z,12.10
2023-04-26T21:09:32.341Z,12.10
2023-04-26T21:11:58.958Z,12.10
2023-04-26T21:14:26.064Z,12.10
2023-04-26T21:16:52.681Z,12.00
2023-04-26T21:19:19.971Z,12.00
2023-04-26T21:21:46.912Z,11.90
2023-04-26T21:24:13.649Z,11.90
2023-04-26T21:26:40.304Z,11.90
2023-04-26T21:29:07.530Z,11.90
2023-04-26T21:31:34.343Z,11.80
2023-04-26T21:34:01.306Z,11.80
2023-04-26T21:36:28.068Z,11.80
2023-04-26T21:38:54.684Z,11.80
2023-04-26T21:41:21.381Z,11.70
2023-04-26T21:43:48.069Z,11.70
2023-04-26T21:46:14.896Z,11.60
2023-04-26T21:48:41.609Z,11.60
2023-04-26T21:51:08.259Z,11.60
2023-04-26T21:53:34.903Z,11.60
2023-04-26T21:56:01.518Z,11.50
2023-04-26T21:58:28.176Z,11.50
2023-04-26T22:00:54.827Z,11.40
2023-04-26T22:03:21.858Z,11.40
2023-04-26T22:05:48.706Z,11.40
2023-04-26T22:08:15.376Z,11.30
2023-04-26T22:10:42.111Z,11.30
2023-04-26T22:13:08.793Z,11.20
2023-04-26T22:15:35.569Z,11.20
2023-04-26T22:18:02.326Z,11.10
2023-04-26T22:20:29.872Z,11.10
2023-04-26T22:22:56.630Z,11.10
2023-04-26T22:25:24.300Z,11.10
2023-04-26T22:27:51.586Z,11.00
2023-04-26T22:30:25.391Z,11.00
2023-04-26T22:32:55.222Z,10.90
2023-04-26T22:35:23.152Z,10.90
2023-04-26T22:37:50.429Z,10.90
2023-04-26T22:40:17.330Z,10.80
2023-04-26T22:42:44.313Z,10.80
2023-04-26T22:45:12.375Z,10.80
2023-04-26T22:47:39.888Z,10.70
2023-04-26T22:50:07.419Z,10.70
2023-04-26T22:52:34.877Z,10.60
2023-04-26T22:55:01.624Z,10.60
2023-04-26T22:57:30.885Z,10.60
2023-04-26T22:59:57.635Z,10.50
2023-04-26T23:02:24.462Z,10.50
2023-04-26T23:04:51.274Z,10.50
2023-04-26T23:07:18.053Z,10.40
2023-04-26T23:09:44.764Z,10.40
2023-04-26T23:12:11.652Z,10.40
2023-04-26T23:14:41.201Z,10.40
2023-04-26T23:17:07.879Z,10.30
2023-04-26T23:19:34.971Z,10.30
2023-04-26T23:22:01.589Z,10.30
2023-04-26T23:24:28.192Z,10.20
2023-04-26T23:26:54.848Z,10.20
2023-04-26T23:29:21.607Z,10.20
2023-04-26T23:31:48.289Z,10.10
2023-04-26T23:34:15.006Z,10.10
2023-04-26T23:36:41.691Z,10.10
2023-04-26T23:39:08.768Z,10.00
2023-04-26T23:41:35.833Z,10.00
2023-04-26T23:44:02.583Z,10.00
2023-04-26T23:46:29.422Z,10.00
2023-04-26T23:48:56.265Z,9.90
2023-04-26T23:51:22.958Z,9.90
2023-04-26T23:53:49.815Z,9.90
2023-04-26T23:56:16.504Z,9.80
2023-04-26T23:58:43.197Z,9.80
